KAGC/AGC METAR and TAF weather

Enter ICAO airport designator
Station Type Date Time Source
KAGC METAR 2021/04/14 18:53 UTC NOAA

KAGC 141853Z 20009KT 10SM BKN048 BKN060 16/05 A2998 RMK AO2 SLP154 T01610050


Station Type Date Time Source
KAGC Decoded METAR 2021/04/14 18:53 UTC NOAA

PITTSBURGH ALLEGHENY CTY., PA, United States (KAGC) 40-21N 079-55W 389M
Apr 14, 2021 - 02:53 PM EDT / 2021.04.14 1853 UTC
Wind: from the SSW (200 degrees) at 10 MPH (9 KT):0
Visibility: 10 mile(s):0
Sky conditions: mostly cloudy
Temperature: 61.0 F (16.1 C)
Dew Point: 41.0 F (5.0 C)
Relative Humidity: 47%
Pressure (altimeter): 29.98 in. Hg (1015 hPa)
ob: KAGC 141853Z 20009KT 10SM BKN048 BKN060 16/05 A2998 RMK AO2 SLP154 T01610050
cycle: 19

Station Type Date Time Source
KAGC TAF 2021/04/14 18:22 UTC NOAA

TAF KAGC 141720Z 1418/1518 25009KT P6SM BKN050
FM151300 29007KT P6SM BKN030
FM151500 29009G18KT P6SM BKN030

Example: see airport list